Highlands Peak, California Weather observations

Data are for observation ending at time listed.
 Day   Time    Ave.   Ave.  Ave.  Vector   Max.   Stn.    Total    Solar   Ave.  
  of    of     Air    Rel.  Wind   Wind    Wind   Baro.  Precip.   Rad.    Soil  
Year   Day     Temp.  Hum.  Speed  Dir.    Gust   Pres.                    Temp. 
2026   (PST)    F      %     mph   deg.    mph     mb.     in.     W/m2     F   
------------------------------------------------------------------------------
 121   14:00   70.2    42    3.5   228      5.0   928.7    0.00     861    67.2
 121   14:10   70.4    42    4.6   223      6.9   928.6    0.00     842    67.5
 121   14:20   70.2    42    4.8   220      6.7   928.4    0.00     809    67.8
 121   14:30   70.7    43    5.9   221      8.0   928.3    0.00     684    68.1
 121   14:40   70.2    42    4.9   224      7.8   928.1    0.00     690    68.4
 121   14:50   70.1    43    5.5   224      7.1   928.0    0.00     766    68.8
 121   15:00   68.6    40    4.0   218      5.8   927.9    0.00     722    69.1
 121   15:10   68.7    39    3.3   227      4.8   927.9    0.00     702    69.3
 121   15:20   69.1    41    3.6   234      5.5   927.8    0.00     669    69.6
 121   15:30   69.2    44    4.4   233      6.5   927.8    0.00     642    69.9
 121   15:40   68.9    44    4.7   234      6.2   927.7    0.00     612    70.2
 121   15:50   69.1    43    4.8   231      6.5   927.6    0.00     579    70.4
 121   16:00   68.7    43    5.4   226      7.8   927.5    0.00     542    70.8
 121   16:10   68.6    42    6.2   223      8.8   927.4    0.00     509    71.1
 121   16:20   69.1    44    4.8   218      7.0   927.5    0.00     479    71.2
 121   16:30   69.2    42    5.0   226      8.0   927.4    0.00     443    71.4
 121   16:40   68.7    42    5.2   230      8.1   927.4    0.00     391    71.5
 121   16:50   68.4    41    4.7   222      7.4   927.4    0.00     362    71.6
 121   17:00   68.4    42    4.8   224      7.5   927.3    0.00     340    71.7
 121   17:10   69.2    42    4.0   233      6.1   927.3    0.00     298    71.7
 121   17:20   67.9    41    4.3   267      5.9   927.3    0.00     183    71.9
 121   17:30   67.1    42    5.0   275      7.2   927.3    0.00     184    71.9
 121   17:40   66.7    42    5.8   273      7.4   927.3    0.00     155    72.0
 121   17:50   66.9    41    5.9   273      7.2   927.2    0.00     151    72.0
 121   18:00   67.8    39    5.7   273      7.6   927.1    0.00     152    72.0
 121   18:10   68.1    38    5.3   274      6.9   927.1    0.00     133    72.0
 121   18:20   67.7    37    5.6   269      7.5   927.0    0.00     104    72.1
 121   18:30   67.2    37    5.3   270      7.3   927.0    0.00      71    72.1
 121   18:40   66.7    39    5.3   270      6.9   927.0    0.00      46    72.1
 121   18:50   65.9    38    5.5   270      6.4   927.0    0.00      23    72.1
 121   19:00   64.7    40    5.8   268      7.4   927.0    0.00       7    72.1
 121   19:10   64.1    39    5.4   280      6.8   927.0    0.00       1    72.1
 121   19:20   64.7    38    4.4   292      6.9   927.1    0.00       0    72.1
 121   19:30   65.1    37    4.8   299      6.5   927.2    0.00       0    72.0
 121   19:40   64.9    38    4.5   309      5.6   927.2    0.00       0    72.0
 121   19:50   65.1    35    4.6   306      5.9   927.2    0.00       0    71.9
 121   20:00   65.1    34    4.6   316      6.3   927.3    0.00       0    71.8
 121   20:10   64.7    35    5.0   346      6.1   927.3    0.00       0    71.7
 121   20:20   64.9    32    4.5   324      5.9   927.5    0.00       0    71.7
 121   20:30   64.0    33    5.5   333      7.1   927.6    0.00       0    71.5
 121   20:40   63.4    34    5.2   331      7.9   927.7    0.00       0    71.4
 121   20:50   63.2    34    5.6   335      6.9   927.7    0.00       0    71.3
 121   21:00   63.0    34    5.6   343      7.5   927.8    0.00       0    71.2
 121   21:10   61.8    37    6.1   357      7.5   927.8    0.00       0    71.1
 121   21:20   62.1    36    6.0   354      8.2   927.8    0.00       0    70.9
 121   21:30   61.5    38    6.2     7      8.0   927.8    0.00       0    70.8
 121   21:40   62.0    36    6.5     2      8.8   927.7    0.00       0    70.7
 121   21:50   62.4    35    6.4   357      7.9   927.7    0.00       0    70.6
 121   22:00   63.5    33    5.9   355      7.4   927.7    0.00       0    70.4
 121   22:10   64.0    33    5.9   358      7.7   927.6    0.00       0    70.3
 121   22:20   63.4    34    5.9   359      7.6   927.6    0.00       0    70.2
 121   22:30   63.6    34    6.8   344      8.3   927.6    0.00       0    70.1
 121   22:40   62.9    37    4.8   344      7.9   927.6    0.00       0    69.9
 121   22:50   60.5    43    3.9    16      9.6   927.6    0.00       0    69.8
 121   23:00   60.0    42    8.3    12     11.5   927.5    0.00       0    69.7
 121   23:10   61.3    38    7.4     3     10.3   927.4    0.00       0    69.5
 121   23:20   60.9    39    7.1   358      9.7   927.4    0.00       0    69.4
 121   23:30   60.0    42    4.2   335      6.4   927.5    0.00       0    69.3
 121   23:40   59.0    47    3.0   289      4.5   927.5    0.00       0    69.2
 121   23:50   58.9    49    1.6   268      2.3   927.5    0.00       0    69.0
 122    0:00   58.9    49    1.0   271      2.0   927.4    0.00       0    68.9
 122    0:10   58.5    45    4.4    26      9.3   927.3    0.00       0    68.8
 122    0:20   58.9    42    6.2    19      9.3   927.3    0.00       0    68.7
 122    0:30   59.6    41    3.4    30      4.5   927.2    0.00       0    68.6
 122    0:40   60.4    38    5.8    12      9.9   927.1    0.00       0    68.5
 122    0:50   61.0    36    6.3     3      9.5   927.0    0.00       0    68.4
 122    1:00   60.9    37    5.5     1      7.7   926.9    0.00       0    68.3
 122    1:10   59.1    41    6.2     9      8.2   926.7    0.00       0    68.2
 122    1:20   59.9    38    5.2   353      7.6   926.6    0.00       0    68.1
 122    1:30   61.8    34    5.1    12      7.9   926.5    0.00       0    68.0
 122    1:40   60.7    36    7.1     2      8.6   926.5    0.00       0    67.9
 122    1:50   59.8    38    7.1    15      8.6   926.3    0.00       0    67.8
 122    2:00   59.8    38    4.9    32      8.6   926.2    0.00       0    67.7
 122    2:10   60.5    38    2.6    51      4.3   926.2    0.00       0    67.6
 122    2:20   59.8    39    3.6    22      6.9   926.2    0.00       0    67.5
 122    2:30   58.9    41    3.4    27      6.9   926.2    0.00       0    67.4
 122    2:40   59.5    40    2.0    96      2.6   926.3    0.00       0    67.3
 122    2:50   58.9    42    2.9    34      4.7   926.3    0.00       0    67.2
 122    3:00   59.7    40    2.8    68      3.7   926.3    0.00       0    67.1
 122    3:10   60.4    39    2.6    54      4.0   926.3    0.00       0    67.0
 122    3:20   59.5    42    4.1    25      5.3   926.2    0.00       0    66.9
 122    3:30   59.5    42    4.9    15      6.3   926.2    0.00       0    66.8
 122    3:40   60.2    40    2.9    24      4.4   926.2    0.00       0    66.7
 122    3:50   60.1    41    1.5    34      3.6   926.1    0.00       0    66.7
 122    4:00   60.7    39    2.0   107      3.4   926.2    0.00       0    66.6
 122    4:10   60.0    40    2.5   123      3.4   926.3    0.00       0    66.5
 122    4:20   57.3    46    2.2    40      3.3   926.3    0.00       0    66.4
 122    4:30   57.1    48    1.7    52      3.7   926.4    0.00       0    66.3
 122    4:40   54.7    54    3.6    22      6.5   926.4    0.00       0    66.3
 122    4:50   55.2    53    4.1    21      6.4   926.4    0.00       0    66.2
 122    5:00   56.6    49    3.3    26      4.7   926.4    0.00       0    66.1
 122    5:10   57.3    47    2.2    37      3.9   926.4    0.00       1    66.0
 122    5:20   57.4    45    1.6    64      2.8   926.4    0.00       5    65.9
 122    5:30   58.8    40    1.7    52      3.6   926.4    0.00      11    65.9
 122    5:40   58.4    44    4.9    10      8.5   926.4    0.00      17    65.8
 122    5:50   59.7    41    4.2     4      7.4   926.4    0.00      23    65.7
 122    6:00   60.4    40    4.1     2      6.8   926.4    0.00      29    65.6
 122    6:10   60.6    40    4.8     6      6.9   926.5    0.00      59    65.5
 122    6:20   61.9    38    1.6    23      5.0   926.6    0.00     165    65.4
 122    6:30   62.9    36    0.2    88      0.9   926.7    0.00     203    65.3
 122    6:40   63.5    35    0.8   168      2.3   926.8    0.00     249    65.1
 122    6:50   62.9    38    0.7    54      2.8   926.9    0.00     292    65.0
 122    7:00   61.6    43    1.3   150      1.8   927.0    0.00     321    64.9
 122    7:10   55.9    63    1.3    53      3.4   927.1    0.00     369    64.9
 122    7:20   50.1    84    1.4   225      3.9   927.2    0.00     393    64.8
 122    7:30   49.4    91    0.9   223      2.6   927.2    0.00     453    64.8
 122    7:40   48.3    94    2.3   154      3.9   927.4    0.00     299    64.7
 122    7:50   47.6    99    1.7    66      3.1   927.4    0.00     281    64.8
 122    8:00   48.1   100    1.1    81      3.2   927.5    0.00     290    64.8
 122    8:10   48.3   100    1.2    86      3.7   927.6    0.00     343    64.8
 122    8:20   48.5   100    1.6   165      5.0   927.7    0.00     361    64.7
 122    8:30   47.8   100    2.3   144      4.8   927.8    0.00     272    64.7
 122    8:40   47.3   100    2.1   201      4.0   927.8    0.00     241    64.7
 122    8:50   46.7   100    2.1   230      3.3   927.8    0.00     240    64.6
 122    9:00   46.8   100    1.9   222      3.7   927.8    0.00     249    64.6
 122    9:10   47.0   100    1.6   181      4.0   927.8    0.00     296    64.6
 122    9:20   47.3   100    2.4   207      4.2   927.9    0.00     291    64.6
 122    9:30   47.0   100    2.7   229      4.4   928.0    0.00     259    64.6
 122    9:40   46.3   100    1.7   221      4.2   928.1    0.00     269    64.5
 122    9:50   46.9   100    1.1   228      3.1   928.1    0.00     323    64.6
 122   10:00   47.4   103    2.2   182      4.2   928.0    0.00     342    64.5
 122   10:10   47.6   104    2.1   226      3.7   927.9    0.00     374    64.5
 122   10:20   47.8   107    2.3   237      3.7   927.9    0.00     407    64.5
 122   10:30   48.6   108    1.1   228      3.1   927.9    0.00     503    64.5
 122   10:40   49.2   108    2.9   220      5.2   927.9    0.00     491    64.5
 122   10:50   48.5   107    3.2   228      6.0   928.0    0.00     431    64.5
 122   11:00   48.3   104    2.9   228      4.7   928.1    0.00     428    64.5
 122   11:10   48.7   104    2.2   233      4.5   927.9    0.00     529    64.5
 122   11:20   49.3   102    2.5   223      5.3   927.8    0.00     603    64.5
 122   11:30   49.4   100    3.3   235      5.5   927.8    0.00     546    64.5
 122   11:40   49.4   100    2.8   232      4.6   927.7    0.00     556    64.6
 122   11:50   50.0   100    2.6   229      6.0   927.6    0.00     642    64.6
 122   12:00   50.5   100    2.6   238      5.4   927.5    0.00     656    64.6
 122   12:10   50.8    98    4.1   220      6.6   927.4    0.00     557    64.7
 122   12:20   50.9    99    3.7   236      6.1   927.3    0.00     644    64.7
 122   12:30   52.6    94    3.1   236      5.8   927.3    0.00     922    64.8
 122   12:40   53.0    90    4.3   237      7.0   927.3    0.00     965    64.8
 122   12:50   53.6    88    3.9   231      6.6   927.3    0.00     900    64.9
 122   13:00   54.2    88    4.8   213      8.2   927.3    0.00     849    65.0
 122   13:10   54.0    88    4.3   222      7.5   927.4    0.00     867    65.1
 122   13:20   55.5    83    3.7   232      8.4   927.1    0.00     925    65.2
 122   13:30   54.4    84    4.2   227      7.5   927.0    0.00     909    65.3
 122   13:40   55.2    84    4.0   235      6.6   926.9    0.00     906    65.5
 122   13:50   55.9    82    3.3   246      6.5   926.8    0.00     840    65.6

Return to Highlands Peak graphs page.


Western Regional Climate Center,wrcc@dri.edu